createdAt,value
2017-03-28T03:01:09.864Z,20.41
2017-03-28T03:01:35.450Z,20.41
2017-03-28T03:02:00.996Z,20.41
2017-03-28T03:02:26.613Z,20.49
2017-03-28T03:02:52.186Z,20.39
2017-03-28T03:03:17.765Z,20.41
2017-03-28T03:03:43.686Z,20.43
2017-03-28T03:04:09.367Z,20.41
2017-03-28T03:04:35.053Z,20.43
2017-03-28T03:05:00.828Z,20.49
2017-03-28T03:05:26.512Z,20.46
2017-03-28T03:05:52.099Z,20.41
2017-03-28T03:06:17.729Z,20.38
2017-03-28T03:06:43.286Z,20.38
2017-03-28T03:07:08.968Z,20.46
2017-03-28T03:07:34.508Z,20.39
2017-03-28T03:08:00.127Z,20.38
2017-03-28T03:08:25.715Z,20.41
2017-03-28T03:08:51.293Z,20.39
2017-03-28T03:09:16.862Z,20.43
2017-03-28T03:09:42.434Z,20.41
2017-03-28T03:10:08.009Z,20.41
2017-03-28T03:10:33.590Z,20.42
2017-03-28T03:10:59.141Z,20.42
2017-03-28T03:11:24.697Z,20.42
2017-03-28T03:11:50.258Z,20.38
2017-03-28T03:12:15.868Z,20.43
2017-03-28T03:12:41.430Z,20.47
2017-03-28T03:13:06.991Z,20.43
2017-03-28T03:13:32.660Z,20.43
2017-03-28T03:13:58.225Z,20.46
2017-03-28T03:14:23.802Z,20.38
2017-03-28T03:14:49.356Z,20.42
2017-03-28T03:15:14.940Z,20.38
2017-03-28T03:15:40.498Z,20.39
2017-03-28T03:16:06.059Z,20.42
2017-03-28T03:16:31.620Z,20.43
2017-03-28T03:16:57.183Z,20.41
2017-03-28T03:17:22.757Z,20.42
2017-03-28T03:17:48.411Z,20.35
2017-03-28T03:18:13.971Z,20.43
2017-03-28T03:18:39.650Z,20.43
2017-03-28T03:19:05.253Z,20.46
2017-03-28T03:19:30.827Z,20.46
2017-03-28T03:19:56.500Z,20.43
2017-03-28T03:20:22.065Z,20.42
2017-03-28T03:20:47.631Z,20.41
2017-03-28T03:21:13.193Z,20.39
2017-03-28T03:21:38.748Z,20.43
2017-03-28T03:22:04.310Z,20.39
2017-03-28T03:22:29.853Z,20.47
2017-03-28T03:22:55.389Z,20.43
2017-03-28T03:23:20.927Z,20.47
2017-03-28T03:23:46.447Z,20.39
2017-03-28T03:24:12.007Z,20.41
2017-03-28T03:24:37.572Z,20.43
2017-03-28T03:25:03.173Z,20.39
2017-03-28T03:25:28.822Z,20.33
2017-03-28T03:25:54.373Z,20.38
2017-03-28T03:26:19.944Z,20.38
2017-03-28T03:26:45.499Z,20.42
2017-03-28T03:27:11.052Z,20.41
2017-03-28T03:27:36.611Z,20.42
2017-03-28T03:28:02.170Z,20.41
2017-03-28T03:28:27.734Z,20.38
2017-03-28T03:28:53.318Z,20.41
2017-03-28T03:29:18.880Z,20.41
2017-03-28T03:29:44.537Z,20.41
2017-03-28T03:30:10.115Z,20.42
2017-03-28T03:30:35.669Z,20.42
2017-03-28T03:31:01.219Z,20.38
2017-03-28T03:31:26.777Z,20.47
2017-03-28T03:31:52.334Z,20.42
2017-03-28T03:32:17.891Z,20.47
2017-03-28T03:32:43.447Z,20.41
2017-03-28T03:33:08.988Z,20.46
2017-03-28T03:33:34.526Z,20.41
2017-03-28T03:34:00.086Z,20.42
2017-03-28T03:34:25.622Z,20.46
2017-03-28T03:34:51.309Z,20.41
2017-03-28T03:35:16.860Z,20.42
2017-03-28T03:35:42.408Z,20.46
2017-03-28T03:36:07.971Z,20.42
2017-03-28T03:36:33.531Z,20.41
2017-03-28T03:36:59.097Z,20.41
2017-03-28T03:37:24.648Z,20.43
2017-03-28T03:37:50.949Z,20.43
2017-03-28T03:38:16.504Z,20.47
2017-03-28T03:38:42.080Z,20.39
2017-03-28T03:39:07.649Z,20.39
2017-03-28T03:39:33.238Z,20.41
2017-03-28T03:39:58.808Z,20.41
2017-03-28T03:40:24.357Z,20.38
2017-03-28T03:40:49.935Z,20.41
2017-03-28T03:41:15.501Z,20.47
2017-03-28T03:41:41.077Z,20.42
2017-03-28T03:42:06.618Z,20.42
2017-03-28T03:42:32.193Z,20.42
2017-03-28T03:42:57.783Z,20.34
2017-03-28T03:43:23.339Z,20.34
2017-03-28T03:43:48.885Z,20.33
2017-03-28T03:44:14.538Z,20.47
2017-03-28T03:44:40.095Z,20.38
2017-03-28T03:45:05.635Z,20.39
2017-03-28T03:45:31.185Z,20.42
2017-03-28T03:45:56.735Z,20.41
2017-03-28T03:46:22.288Z,20.38
2017-03-28T03:46:47.841Z,20.46
2017-03-28T03:47:13.395Z,20.33
2017-03-28T03:47:38.939Z,20.35
2017-03-28T03:48:04.500Z,20.35
2017-03-28T03:48:30.050Z,20.35
2017-03-28T03:48:55.667Z,20.33
2017-03-28T03:49:21.220Z,20.33
2017-03-28T03:49:46.784Z,20.34
2017-03-28T03:50:12.400Z,20.38
2017-03-28T03:50:37.984Z,20.33
2017-03-28T03:51:03.537Z,20.35
2017-03-28T03:51:29.094Z,20.34
2017-03-28T03:51:54.640Z,20.31
2017-03-28T03:52:20.186Z,20.33
2017-03-28T03:52:45.758Z,20.35
2017-03-28T03:53:11.332Z,20.34
2017-03-28T03:53:36.869Z,20.38
2017-03-28T03:54:02.431Z,20.39
2017-03-28T03:54:27.968Z,20.41
2017-03-28T03:54:53.523Z,20.38
2017-03-28T03:55:19.114Z,20.34
2017-03-28T03:55:44.684Z,20.31
2017-03-28T03:56:10.248Z,20.43
2017-03-28T03:56:35.831Z,20.33
2017-03-28T03:57:01.391Z,20.3
2017-03-28T03:57:26.958Z,20.34
2017-03-28T03:57:52.512Z,20.31
2017-03-28T03:58:18.077Z,20.43
2017-03-28T03:58:43.857Z,20.41
2017-03-28T03:59:09.412Z,20.41
2017-03-28T03:59:34.980Z,20.35
2017-03-28T04:00:00.548Z,20.31
2017-03-28T04:00:26.129Z,20.31
2017-03-28T04:00:51.686Z,20.34
2017-03-28T04:01:17.239Z,20.42
2017-03-28T04:01:42.801Z,20.34
2017-03-28T04:02:08.353Z,20.3
2017-03-28T04:02:33.911Z,20.42
2017-03-28T04:02:59.456Z,20.35
2017-03-28T04:03:25.010Z,20.39
2017-03-28T04:03:50.550Z,20.34
2017-03-28T04:04:16.091Z,20.31
2017-03-28T04:04:41.622Z,20.35
2017-03-28T04:05:07.164Z,20.27
2017-03-28T04:05:32.699Z,20.3
2017-03-28T04:05:58.248Z,20.42
2017-03-28T04:06:23.791Z,20.41
2017-03-28T04:06:49.342Z,20.33
2017-03-28T04:07:14.932Z,20.39
2017-03-28T04:07:40.495Z,20.34
2017-03-28T04:08:06.058Z,20.38
2017-03-28T04:08:31.630Z,20.27
2017-03-28T04:08:57.185Z,20.38
2017-03-28T04:09:22.750Z,20.28
2017-03-28T04:09:48.399Z,20.35
2017-03-28T04:10:13.970Z,20.3
2017-03-28T04:10:39.547Z,20.42
2017-03-28T04:11:05.126Z,20.33
2017-03-28T04:11:30.670Z,20.33
2017-03-28T04:11:56.240Z,20.33
2017-03-28T04:12:21.782Z,20.31
2017-03-28T04:12:47.341Z,20.41
2017-03-28T04:13:12.952Z,20.33
2017-03-28T04:13:38.496Z,20.28
2017-03-28T04:14:04.039Z,20.33
2017-03-28T04:14:29.623Z,20.31
2017-03-28T04:14:55.204Z,20.24
2017-03-28T04:15:20.900Z,20.24
2017-03-28T04:15:46.619Z,20.34
2017-03-28T04:16:12.201Z,20.27
2017-03-28T04:16:37.762Z,20.35
2017-03-28T04:17:03.338Z,20.27
2017-03-28T04:17:28.905Z,20.25
2017-03-28T04:17:54.470Z,20.21
2017-03-28T04:18:20.034Z,20.23
2017-03-28T04:18:45.609Z,20.25
2017-03-28T04:19:11.156Z,20.3
2017-03-28T04:19:36.726Z,20.23
2017-03-28T04:20:02.372Z,20.21
2017-03-28T04:20:27.938Z,20.21
2017-03-28T04:20:53.511Z,20.27
2017-03-28T04:21:19.086Z,20.25
2017-03-28T04:21:44.651Z,20.25
2017-03-28T04:22:10.199Z,20.24
2017-03-28T04:22:35.740Z,20.24
2017-03-28T04:23:01.278Z,20.21
2017-03-28T04:23:26.931Z,20.28
2017-03-28T04:23:52.486Z,20.25
2017-03-28T04:24:18.031Z,20.27
2017-03-28T04:24:43.577Z,20.25
2017-03-28T04:25:09.229Z,20.23
2017-03-28T04:25:34.794Z,20.27
2017-03-28T04:26:00.366Z,20.23
2017-03-28T04:26:25.922Z,20.3
2017-03-28T04:26:51.500Z,20.3
2017-03-28T04:27:17.068Z,20.21
2017-03-28T04:27:42.651Z,20.25
2017-03-28T04:28:08.220Z,20.33
2017-03-28T04:28:33.791Z,20.23
2017-03-28T04:28:59.360Z,20.27
2017-03-28T04:29:24.951Z,20.25
2017-03-28T04:29:50.510Z,20.21
2017-03-28T04:30:16.079Z,20.28
2017-03-28T04:30:41.667Z,20.28
2017-03-28T04:31:07.238Z,20.24
2017-03-28T04:31:32.782Z,20.24
2017-03-28T04:31:58.367Z,20.27
2017-03-28T04:32:23.940Z,20.24
2017-03-28T04:32:49.493Z,20.27
2017-03-28T04:33:15.119Z,20.24
2017-03-28T04:33:40.681Z,20.2
2017-03-28T04:34:06.263Z,20.23
2017-03-28T04:34:31.869Z,20.27
2017-03-28T04:34:57.441Z,20.24
2017-03-28T04:35:23.002Z,20.3
2017-03-28T04:35:48.572Z,20.3
2017-03-28T04:36:14.144Z,20.23
2017-03-28T04:36:39.699Z,20.27
2017-03-28T04:37:05.278Z,20.27
2017-03-28T04:37:30.848Z,20.24
2017-03-28T04:37:56.419Z,20.21
2017-03-28T04:38:21.980Z,20.23
2017-03-28T04:38:47.557Z,20.3
2017-03-28T04:39:13.133Z,20.27
2017-03-28T04:39:38.707Z,20.21
2017-03-28T04:40:04.380Z,20.27
2017-03-28T04:40:29.969Z,20.24
2017-03-28T04:40:55.553Z,20.24
2017-03-28T04:41:21.249Z,20.18
2017-03-28T04:41:46.814Z,20.27
2017-03-28T04:42:12.376Z,20.24
2017-03-28T04:42:37.962Z,20.2
2017-03-28T04:43:03.533Z,20.24
2017-03-28T04:43:29.103Z,20.18
2017-03-28T04:43:54.661Z,20.27
2017-03-28T04:44:20.215Z,20.24
2017-03-28T04:44:45.804Z,20.24
2017-03-28T04:45:11.359Z,20.27
2017-03-28T04:45:36.919Z,20.18
2017-03-28T04:46:02.492Z,20.21
2017-03-28T04:46:28.102Z,20.28
2017-03-28T04:46:53.682Z,20.25
2017-03-28T04:47:19.242Z,20.18
2017-03-28T04:47:44.800Z,20.28
2017-03-28T04:48:10.416Z,20.28
2017-03-28T04:48:36.012Z,20.24
2017-03-28T04:49:01.570Z,20.2
2017-03-28T04:49:27.136Z,20.24
2017-03-28T04:49:52.718Z,20.24
2017-03-28T04:50:18.371Z,20.2
2017-03-28T04:50:43.951Z,20.27
2017-03-28T04:51:09.529Z,20.24
2017-03-28T04:51:35.112Z,20.21
2017-03-28T04:52:00.682Z,20.28
2017-03-28T04:52:26.325Z,20.24
2017-03-28T04:52:51.807Z,20.21
2017-03-28T04:53:17.372Z,20.25
2017-03-28T04:53:43.027Z,20.18
2017-03-28T04:54:08.613Z,20.21
2017-03-28T04:54:34.177Z,20.21
2017-03-28T04:54:59.754Z,20.27
2017-03-28T04:55:25.359Z,20.27
2017-03-28T04:55:50.921Z,20.21
2017-03-28T04:56:16.492Z,20.24
2017-03-28T04:56:42.150Z,20.23
2017-03-28T04:57:07.731Z,20.21
2017-03-28T04:57:33.292Z,20.24
2017-03-28T04:57:58.859Z,20.28
2017-03-28T04:58:24.560Z,20.28
2017-03-28T04:58:50.118Z,20.25
2017-03-28T04:59:15.670Z,20.23
2017-03-28T04:59:41.246Z,20.28
2017-03-28T05:00:06.833Z,20.23
2017-03-28T05:00:32.400Z,20.27
2017-03-28T05:00:57.971Z,20.24
2017-03-28T05:01:23.531Z,20.21
2017-03-28T05:01:49.089Z,20.2
2017-03-28T05:02:14.662Z,20.2
2017-03-28T05:02:40.253Z,20.23
2017-03-28T05:03:05.841Z,20.27
2017-03-28T05:03:31.408Z,20.27
2017-03-28T05:03:56.991Z,20.24
2017-03-28T05:04:22.564Z,20.21
2017-03-28T05:04:48.140Z,20.21
2017-03-28T05:05:13.721Z,20.27
2017-03-28T05:05:39.291Z,20.27
2017-03-28T05:06:04.868Z,20.24
2017-03-28T05:06:30.454Z,20.2
2017-03-28T05:06:56.029Z,20.24
2017-03-28T05:07:21.596Z,20.18
2017-03-28T05:07:47.173Z,20.18
2017-03-28T05:08:12.742Z,20.25
2017-03-28T05:08:38.309Z,20.25
2017-03-28T05:09:03.880Z,20.25
2017-03-28T05:09:29.573Z,20.21
2017-03-28T05:09:55.099Z,20.24
2017-03-28T05:10:20.647Z,20.2
2017-03-28T05:10:46.212Z,20.2
2017-03-28T05:11:11.843Z,20.16
2017-03-28T05:11:37.419Z,20.24
2017-03-28T05:12:03.111Z,20.2
2017-03-28T05:12:28.679Z,20.18
2017-03-28T05:12:54.251Z,20.21
2017-03-28T05:13:19.815Z,20.15
2017-03-28T05:13:45.432Z,20.21
2017-03-28T05:14:10.989Z,20.18
2017-03-28T05:14:36.554Z,20.23
2017-03-28T05:15:02.130Z,20.24
2017-03-28T05:15:27.692Z,20.21
2017-03-28T05:15:53.306Z,20.25
2017-03-28T05:16:18.860Z,20.16
2017-03-28T05:16:44.423Z,20.24
2017-03-28T05:17:09.992Z,20.23
2017-03-28T05:17:35.552Z,20.2
2017-03-28T05:18:01.109Z,20.23
2017-03-28T05:18:26.677Z,20.18
2017-03-28T05:18:52.264Z,20.18
2017-03-28T05:19:17.831Z,20.23
2017-03-28T05:19:43.464Z,20.16
2017-03-28T05:20:09.037Z,20.2
2017-03-28T05:20:34.614Z,20.25
2017-03-28T05:21:00.248Z,20.15
2017-03-28T05:21:25.805Z,20.2
2017-03-28T05:21:51.370Z,20.2
2017-03-28T05:22:16.942Z,20.2
2017-03-28T05:22:42.640Z,20.16
2017-03-28T05:23:08.260Z,20.2
2017-03-28T05:23:33.830Z,20.2
2017-03-28T05:23:59.398Z,20.18
2017-03-28T05:24:24.982Z,20.27
2017-03-28T05:24:50.552Z,20.16
2017-03-28T05:25:16.110Z,20.18
2017-03-28T05:25:41.673Z,20.23
2017-03-28T05:26:07.273Z,20.16
2017-03-28T05:26:32.829Z,20.18
2017-03-28T05:26:58.393Z,20.15
2017-03-28T05:27:23.941Z,20.16
2017-03-28T05:27:50.332Z,20.2
2017-03-28T05:28:15.907Z,20.2
2017-03-28T05:28:41.476Z,20.13
2017-03-28T05:29:07.038Z,20.24
2017-03-28T05:29:32.621Z,20.18
2017-03-28T05:29:58.194Z,20.25
2017-03-28T05:30:23.758Z,20.25
2017-03-28T05:30:49.322Z,20.24
2017-03-28T05:31:14.955Z,20.21
2017-03-28T05:31:40.531Z,20.16
2017-03-28T05:32:06.102Z,20.27
2017-03-28T05:32:31.663Z,20.21
2017-03-28T05:32:57.229Z,20.28
2017-03-28T05:33:22.801Z,20.21
2017-03-28T05:33:48.363Z,20.27
2017-03-28T05:34:13.933Z,20.2
2017-03-28T05:34:39.492Z,20.2
2017-03-28T05:35:05.154Z,20.25
2017-03-28T05:35:30.731Z,20.28
2017-03-28T05:35:56.292Z,20.27
2017-03-28T05:36:21.868Z,20.3
2017-03-28T05:36:47.587Z,20.15
2017-03-28T05:37:13.160Z,20.18
2017-03-28T05:37:38.726Z,20.23
2017-03-28T05:38:04.303Z,20.23
2017-03-28T05:38:29.862Z,20.2
2017-03-28T05:38:55.427Z,20.28
2017-03-28T05:39:21.012Z,20.2
2017-03-28T05:39:46.648Z,20.25
2017-03-28T05:40:12.213Z,20.25
2017-03-28T05:40:37.813Z,20.2
2017-03-28T05:41:03.393Z,20.2
2017-03-28T05:41:28.955Z,20.2
2017-03-28T05:41:54.501Z,20.25
2017-03-28T05:42:20.073Z,20.25
2017-03-28T05:42:45.708Z,20.21
2017-03-28T05:43:11.290Z,20.2
2017-03-28T05:43:36.864Z,20.2
2017-03-28T05:44:02.427Z,20.21
2017-03-28T05:44:27.991Z,20.25
2017-03-28T05:44:53.552Z,20.23
2017-03-28T05:45:19.112Z,20.24
2017-03-28T05:45:44.677Z,20.24
2017-03-28T05:46:10.276Z,20.21
2017-03-28T05:46:35.846Z,20.23
2017-03-28T05:47:01.569Z,20.24
2017-03-28T05:47:27.100Z,20.23
2017-03-28T05:47:52.699Z,20.27
2017-03-28T05:48:18.331Z,20.28
2017-03-28T05:48:44.007Z,20.25
2017-03-28T05:49:09.599Z,20.2
2017-03-28T05:49:35.165Z,20.2
2017-03-28T05:50:00.736Z,20.23
2017-03-28T05:50:26.313Z,20.24
2017-03-28T05:50:51.882Z,20.23
2017-03-28T05:51:17.471Z,20.24
2017-03-28T05:51:43.029Z,20.18
2017-03-28T05:52:08.632Z,20.2
2017-03-28T05:52:34.264Z,20.21
2017-03-28T05:52:59.823Z,20.21
2017-03-28T05:53:25.476Z,20.2
2017-03-28T05:53:51.074Z,20.24
2017-03-28T05:54:16.663Z,20.15
2017-03-28T05:54:42.220Z,20.27
2017-03-28T05:55:07.780Z,20.21
2017-03-28T05:55:33.504Z,20.25
2017-03-28T05:55:59.073Z,20.25
2017-03-28T05:56:24.630Z,20.23
2017-03-28T05:56:50.218Z,20.21
2017-03-28T05:57:15.780Z,20.21
2017-03-28T05:57:41.349Z,20.16
2017-03-28T05:58:06.914Z,20.15
2017-03-28T05:58:32.503Z,20.12
2017-03-28T05:58:58.068Z,20.16
2017-03-28T05:59:23.691Z,20.09
2017-03-28T05:59:49.261Z,20.13
2017-03-28T06:00:14.834Z,20.09
2017-03-28T06:00:40.480Z,20.12
2017-03-28T06:01:44.237Z,20.16
2017-03-28T06:02:09.814Z,20.08
2017-03-28T06:02:35.364Z,20.18
2017-03-28T06:03:00.930Z,20.18
2017-03-28T06:03:26.487Z,20.18
2017-03-28T06:03:52.050Z,20.09
2017-03-28T06:04:17.635Z,20.13
2017-03-28T06:04:43.205Z,20.16
2017-03-28T06:05:08.834Z,20.13
2017-03-28T06:05:34.400Z,20.1
2017-03-28T06:05:59.982Z,20.05
2017-03-28T06:06:25.533Z,20.15
2017-03-28T06:06:51.094Z,20.16
2017-03-28T06:07:16.661Z,20.09
2017-03-28T06:07:42.276Z,20.2
2017-03-28T06:08:07.851Z,20.21
2017-03-28T06:08:33.403Z,20.18
2017-03-28T06:08:58.973Z,20.08
2017-03-28T06:09:24.550Z,20.12
2017-03-28T06:09:50.952Z,20.12
2017-03-28T06:10:16.491Z,20.12
2017-03-28T06:10:42.049Z,20.16
2017-03-28T06:11:07.672Z,20.12
2017-03-28T06:11:33.228Z,20.09
2017-03-28T06:11:58.787Z,20.09
2017-03-28T06:12:24.401Z,20.16
2017-03-28T06:12:49.965Z,20.18
2017-03-28T06:13:15.625Z,20.06
2017-03-28T06:13:41.168Z,20.21
2017-03-28T06:14:06.728Z,20.12
2017-03-28T06:14:32.371Z,20.13
2017-03-28T06:14:57.929Z,20.15
2017-03-28T06:15:23.504Z,20.1
2017-03-28T06:15:49.203Z,20.09
2017-03-28T06:16:14.748Z,20.12
2017-03-28T06:16:40.312Z,20.13
2017-03-28T06:17:05.874Z,20.09
2017-03-28T06:17:31.421Z,20.05
2017-03-28T06:17:56.999Z,20.12
2017-03-28T06:18:22.570Z,20.12
2017-03-28T06:18:48.106Z,20.09
2017-03-28T06:19:13.674Z,20.12
2017-03-28T06:19:39.221Z,20.09
2017-03-28T06:20:04.809Z,20.12
2017-03-28T06:20:30.394Z,20.16
2017-03-28T06:20:55.943Z,20.09
2017-03-28T06:21:21.502Z,20.16
2017-03-28T06:21:47.091Z,20.05
2017-03-28T06:22:12.649Z,20.09
2017-03-28T06:22:38.198Z,20.06
2017-03-28T06:23:03.760Z,20.09
2017-03-28T06:23:29.303Z,20.05
2017-03-28T06:23:54.870Z,20.15
2017-03-28T06:24:20.418Z,20.16
2017-03-28T06:24:45.959Z,20.09
2017-03-28T06:25:11.507Z,20.12
2017-03-28T06:25:37.055Z,20.12
2017-03-28T06:26:02.650Z,20.1
2017-03-28T06:26:28.342Z,20.03
2017-03-28T06:26:53.894Z,20.15
2017-03-28T06:27:19.434Z,20.1
2017-03-28T06:27:45.108Z,20.13
2017-03-28T06:28:10.638Z,20.12
2017-03-28T06:28:36.203Z,20.13
2017-03-28T06:29:01.911Z,20.12
2017-03-28T06:29:27.467Z,20.12
2017-03-28T06:29:53.039Z,20.16
2017-03-28T06:30:18.598Z,20.09
2017-03-28T06:30:44.178Z,20.1
2017-03-28T06:31:09.783Z,20.05
2017-03-28T06:31:35.347Z,20.02
2017-03-28T06:32:00.905Z,20.02
2017-03-28T06:32:26.482Z,20.09
2017-03-28T06:32:52.067Z,20.15
2017-03-28T06:33:17.632Z,20.05
2017-03-28T06:33:43.190Z,20.03
2017-03-28T06:34:08.849Z,20.05
2017-03-28T06:34:34.405Z,20.02
2017-03-28T06:34:59.982Z,20.1
2017-03-28T06:35:25.554Z,20.13
2017-03-28T06:35:51.122Z,20.12
2017-03-28T06:36:16.671Z,20.1
2017-03-28T06:36:42.230Z,20.13
2017-03-28T06:37:07.967Z,20.06
2017-03-28T06:37:33.539Z,20.12
2017-03-28T06:37:59.109Z,20.13
2017-03-28T06:38:24.680Z,20.08
2017-03-28T06:38:50.283Z,20.1
2017-03-28T06:39:15.856Z,20.15
2017-03-28T06:39:41.410Z,20.1
2017-03-28T06:40:07.002Z,20
2017-03-28T06:40:32.569Z,20.09
2017-03-28T06:40:58.183Z,19.98
2017-03-28T06:41:23.748Z,20.02
2017-03-28T06:41:49.311Z,20.02
2017-03-28T06:42:14.875Z,20.05
2017-03-28T06:42:40.452Z,20.05
2017-03-28T06:43:06.009Z,20.02
2017-03-28T06:43:31.633Z,20.09
2017-03-28T06:43:57.191Z,20.12
2017-03-28T06:44:22.784Z,20.12
2017-03-28T06:44:48.339Z,20.1
2017-03-28T06:45:13.886Z,20.09
2017-03-28T06:45:39.436Z,20.08
2017-03-28T06:46:04.998Z,20.08
2017-03-28T06:46:30.545Z,20.13
2017-03-28T06:46:56.112Z,20.06
2017-03-28T06:47:21.659Z,20.06
2017-03-28T06:47:47.204Z,20.05
2017-03-28T06:48:12.743Z,20.09
2017-03-28T06:48:38.302Z,20.03
2017-03-28T06:49:03.868Z,20.03
2017-03-28T06:49:29.496Z,20.06
2017-03-28T06:49:55.055Z,20.02
2017-03-28T06:50:20.597Z,20.03
2017-03-28T06:50:46.162Z,20.06
2017-03-28T06:51:11.704Z,20.03
2017-03-28T06:51:37.323Z,20.03
2017-03-28T06:52:02.878Z,20.09
2017-03-28T06:52:28.545Z,20.09
2017-03-28T06:52:54.100Z,20.1
2017-03-28T06:53:19.649Z,20.03
2017-03-28T06:53:45.196Z,20.02
2017-03-28T06:54:10.736Z,20.13
2017-03-28T06:54:36.276Z,20.05
2017-03-28T06:55:01.850Z,20.08
2017-03-28T06:55:27.490Z,20.02
2017-03-28T06:55:53.068Z,20.08
2017-03-28T06:56:18.613Z,20.1
2017-03-28T06:56:44.211Z,20.09
2017-03-28T06:57:09.756Z,20.12
2017-03-28T06:57:35.320Z,20.08
2017-03-28T06:58:00.877Z,20.08
2017-03-28T06:58:26.403Z,20.09
2017-03-28T06:58:52.066Z,20.12
2017-03-28T06:59:17.620Z,20.1
2017-03-28T06:59:43.262Z,20.05
2017-03-28T07:00:08.832Z,20.06
2017-03-28T07:00:34.451Z,19.97
2017-03-28T07:01:00.034Z,20.1
2017-03-28T07:01:25.570Z,20.1
2017-03-28T07:01:51.132Z,20
2017-03-28T07:02:16.697Z,20.05
2017-03-28T07:02:42.271Z,20
2017-03-28T07:03:07.845Z,20.06
2017-03-28T07:03:33.457Z,20.02
2017-03-28T07:03:59.080Z,20.05
2017-03-28T07:04:24.653Z,20.06
2017-03-28T07:04:50.221Z,20
2017-03-28T07:05:15.791Z,20
2017-03-28T07:05:41.429Z,20.08
2017-03-28T07:06:07.001Z,20.08
2017-03-28T07:06:32.581Z,20.05
2017-03-28T07:06:58.143Z,20.05
2017-03-28T07:07:23.719Z,20
2017-03-28T07:07:49.358Z,20.03
2017-03-28T07:08:14.912Z,20.02
2017-03-28T07:08:40.479Z,20.05
2017-03-28T07:09:06.021Z,20.05
2017-03-28T07:09:31.590Z,20
2017-03-28T07:09:57.183Z,20.09
2017-03-28T07:10:22.824Z,20.03
2017-03-28T07:10:48.432Z,19.98
2017-03-28T07:11:13.990Z,20.06
2017-03-28T07:11:39.586Z,20.06
2017-03-28T07:12:05.174Z,19.97
2017-03-28T07:12:30.755Z,20.02
2017-03-28T07:12:56.301Z,20
2017-03-28T07:13:21.870Z,19.98
2017-03-28T07:13:47.421Z,20
2017-03-28T07:14:12.980Z,20.03
2017-03-28T07:14:38.596Z,20.06
2017-03-28T07:15:04.125Z,20.06
2017-03-28T07:15:29.679Z,19.93
2017-03-28T07:15:55.238Z,20.03
2017-03-28T07:16:20.803Z,19.93
2017-03-28T07:16:46.377Z,19.98
2017-03-28T07:17:11.926Z,20
2017-03-28T07:17:37.472Z,20.09
2017-03-28T07:18:03.036Z,20.03
2017-03-28T07:18:28.589Z,20.02
2017-03-28T07:18:54.129Z,19.95
2017-03-28T07:19:19.697Z,20.03
2017-03-28T07:19:45.269Z,19.97
2017-03-28T07:20:10.836Z,19.97
2017-03-28T07:20:36.503Z,19.94
2017-03-28T07:21:02.070Z,20.02
2017-03-28T07:21:27.629Z,19.97
2017-03-28T07:21:53.188Z,19.98
2017-03-28T07:22:18.739Z,19.91
2017-03-28T07:22:44.363Z,19.97
2017-03-28T07:23:09.913Z,19.94
2017-03-28T07:23:35.447Z,19.97
2017-03-28T07:24:01.020Z,19.95
2017-03-28T07:24:26.600Z,19.97
2017-03-28T07:24:52.164Z,20.03
2017-03-28T07:25:17.722Z,20
2017-03-28T07:25:43.274Z,20.02
2017-03-28T07:26:08.840Z,20
2017-03-28T07:26:34.408Z,19.98
2017-03-28T07:26:59.959Z,20.03
2017-03-28T07:27:25.515Z,20.03
2017-03-28T07:27:51.074Z,19.97
2017-03-28T07:28:16.608Z,20.05
2017-03-28T07:28:42.218Z,20.03
2017-03-28T07:29:07.778Z,20.03
2017-03-28T07:29:33.323Z,20.05
2017-03-28T07:29:58.871Z,19.98
2017-03-28T07:30:24.433Z,20.05
2017-03-28T07:30:49.979Z,20.03
2017-03-28T07:31:15.540Z,20
2017-03-28T07:31:41.107Z,19.93
2017-03-28T07:32:06.671Z,20.03
2017-03-28T07:32:32.256Z,20.08
2017-03-28T07:32:57.829Z,20.05
2017-03-28T07:33:23.392Z,20.03
2017-03-28T07:33:48.969Z,20.03
2017-03-28T07:34:14.548Z,19.93
2017-03-28T07:34:40.177Z,20.02
2017-03-28T07:35:05.756Z,20.08
2017-03-28T07:35:31.298Z,19.98
2017-03-28T07:35:56.859Z,19.94
2017-03-28T07:36:22.473Z,19.98
2017-03-28T07:36:48.027Z,19.97
2017-03-28T07:37:13.555Z,19.95
2017-03-28T07:37:39.118Z,19.95
2017-03-28T07:38:04.677Z,19.91
2017-03-28T07:38:30.308Z,19.9
2017-03-28T07:38:55.855Z,19.97
2017-03-28T07:39:21.389Z,19.94
2017-03-28T07:39:46.924Z,19.97
2017-03-28T07:40:12.494Z,19.94
2017-03-28T07:40:38.096Z,19.95
2017-03-28T07:41:03.703Z,20.02
2017-03-28T07:41:29.265Z,19.97
2017-03-28T07:41:54.838Z,19.97
2017-03-28T07:42:20.476Z,19.98
2017-03-28T07:42:46.035Z,19.93
2017-03-28T07:43:11.614Z,19.98
2017-03-28T07:43:37.182Z,19.9
2017-03-28T07:44:02.739Z,19.88
2017-03-28T07:44:28.289Z,19.97
2017-03-28T07:44:53.931Z,20.05
2017-03-28T07:45:19.492Z,19.94
2017-03-28T07:45:45.042Z,19.94
2017-03-28T07:46:10.620Z,20
2017-03-28T07:46:36.163Z,20.03
2017-03-28T07:47:01.756Z,19.94
2017-03-28T07:47:27.307Z,20
2017-03-28T07:47:52.878Z,19.94
2017-03-28T07:48:18.435Z,19.93
2017-03-28T07:48:44.107Z,20
2017-03-28T07:49:09.684Z,19.94
2017-03-28T07:49:35.277Z,19.93
2017-03-28T07:50:00.860Z,19.94
2017-03-28T07:50:26.424Z,20.03
2017-03-28T07:50:52.019Z,20
2017-03-28T07:51:17.577Z,20
2017-03-28T07:51:43.128Z,19.94
2017-03-28T07:52:08.689Z,19.91
2017-03-28T07:52:34.257Z,19.98
2017-03-28T07:52:59.813Z,20.02
2017-03-28T07:53:25.374Z,19.98
2017-03-28T07:53:50.916Z,20.03
2017-03-28T07:54:16.458Z,19.93
2017-03-28T07:54:42.004Z,20.03
2017-03-28T07:55:07.557Z,19.94
2017-03-28T07:55:33.113Z,20.02
2017-03-28T07:55:58.681Z,19.93
2017-03-28T07:56:24.226Z,20
2017-03-28T07:56:49.816Z,20
2017-03-28T07:57:15.378Z,20.05
2017-03-28T07:57:40.976Z,19.93
2017-03-28T07:58:06.512Z,20.02
2017-03-28T07:58:32.063Z,19.94
2017-03-28T07:58:57.619Z,19.93
2017-03-28T07:59:23.187Z,19.94
2017-03-28T07:59:48.729Z,20.02
2017-03-28T08:00:14.272Z,19.93
2017-03-28T08:00:39.910Z,19.97
2017-03-28T08:01:05.436Z,19.95
2017-03-28T08:01:31.035Z,19.98
2017-03-28T08:01:56.630Z,20
2017-03-28T08:02:22.171Z,19.93
2017-03-28T08:02:47.709Z,19.97
2017-03-28T08:03:13.280Z,20.03
2017-03-28T08:03:38.827Z,19.95
2017-03-28T08:04:04.389Z,19.95
2017-03-28T08:04:29.927Z,19.97
2017-03-28T08:04:55.488Z,19.98
2017-03-28T08:05:21.030Z,19.95
2017-03-28T08:05:46.588Z,19.98
2017-03-28T08:06:12.227Z,19.98
2017-03-28T08:06:37.776Z,19.94
2017-03-28T08:07:03.315Z,19.91
2017-03-28T08:07:28.868Z,19.93
2017-03-28T08:07:54.406Z,19.95
2017-03-28T08:08:19.955Z,19.93
2017-03-28T08:08:45.567Z,19.98
2017-03-28T08:09:11.127Z,19.97
2017-03-28T08:09:36.710Z,19.93
2017-03-28T08:10:02.387Z,19.97
2017-03-28T08:10:27.956Z,19.95
2017-03-28T08:10:53.502Z,19.91
2017-03-28T08:11:19.197Z,19.95
2017-03-28T08:11:44.816Z,19.98
2017-03-28T08:12:10.379Z,19.93
2017-03-28T08:12:36.016Z,19.98
2017-03-28T08:13:01.645Z,19.95
2017-03-28T08:13:27.221Z,19.95
2017-03-28T08:13:52.786Z,19.97
2017-03-28T08:14:18.340Z,19.98
2017-03-28T08:14:43.923Z,19.9
2017-03-28T08:15:09.487Z,19.97
2017-03-28T08:15:35.037Z,19.95
2017-03-28T08:16:00.610Z,19.98
2017-03-28T08:16:26.249Z,19.93
2017-03-28T08:16:51.819Z,19.94
2017-03-28T08:17:17.957Z,19.98
2017-03-28T08:17:42.988Z,19.94
2017-03-28T08:18:09.259Z,19.97
2017-03-28T08:18:34.827Z,19.98
2017-03-28T08:19:00.391Z,19.91
2017-03-28T08:19:25.940Z,20.02
2017-03-28T08:19:51.510Z,19.94
2017-03-28T08:20:17.080Z,19.95
2017-03-28T08:20:42.644Z,19.95
2017-03-28T08:21:08.240Z,19.97
2017-03-28T08:21:33.799Z,19.95
2017-03-28T08:21:59.509Z,19.91
2017-03-28T08:22:25.069Z,19.91
2017-03-28T08:22:50.636Z,19.95
2017-03-28T08:23:16.228Z,19.95
2017-03-28T08:23:41.788Z,19.95
2017-03-28T08:24:07.338Z,19.95
2017-03-28T08:24:32.909Z,19.93
2017-03-28T08:24:58.471Z,19.88
2017-03-28T08:25:24.019Z,19.95
2017-03-28T08:25:49.692Z,19.94
2017-03-28T08:26:15.254Z,19.94
2017-03-28T08:26:40.824Z,19.94
2017-03-28T08:27:06.397Z,19.93
2017-03-28T08:27:31.962Z,19.93
2017-03-28T08:27:57.570Z,19.9
2017-03-28T08:28:23.274Z,19.97
2017-03-28T08:28:48.922Z,19.9
2017-03-28T08:29:14.507Z,19.9
2017-03-28T08:29:40.121Z,19.93
2017-03-28T08:30:05.674Z,19.93
2017-03-28T08:30:31.219Z,19.94
2017-03-28T08:30:56.758Z,19.94
2017-03-28T08:31:22.300Z,19.94
2017-03-28T08:31:47.902Z,19.94
2017-03-28T08:32:13.488Z,19.9
2017-03-28T08:32:39.026Z,19.93